Time;durP1;ratioP1;P1;durP2;ratioP2;P2;SDS_P1;SDS_P2;PMS_P1;PMS_P2;Temp;Humidity;BMP_temperature;BMP_pressure;BME280_temperature;BME280_humidity;BME280_pressure;Samples;Min_cycle;Max_cycle;Signal;HPM_P1;HPM_P2
2022/06/20 00:02:27;;;;;;;18.55;8.15;;;;;;;22.40;93.14;95931.69;5018079;28;20037;-72
2022/06/20 00:04:55;;;;;;;25.52;7.90;;;;;;;22.28;94.08;95940.97;5023250;28;20044;-70
2022/06/20 00:07:21;;;;;;;22.65;8.73;;;;;;;22.08;95.86;95933.00;5017375;28;20352;-68
2022/06/20 00:09:47;;;;;;;20.58;7.57;;;;;;;22.09;97.83;95931.75;5023030;28;20085;-69
2022/06/20 00:12:19;;;;;;;21.70;8.75;;;;;;;22.22;97.92;95929.63;5017456;28;20053;-67
2022/06/20 00:14:47;;;;;;;16.40;8.25;;;;;;;22.23;98.16;95936.75;5023304;28;20048;-68
2022/06/20 00:17:14;;;;;;;19.45;8.57;;;;;;;22.26;98.23;95935.06;5017819;28;20109;-67
2022/06/20 00:19:42;;;;;;;24.08;8.95;;;;;;;22.14;98.39;95934.72;5022659;28;20029;-69
2022/06/20 00:22:10;;;;;;;24.50;8.57;;;;;;;22.11;98.78;95935.66;5017520;28;20048;-68
2022/06/20 00:24:36;;;;;;;22.27;8.55;;;;;;;22.07;99.25;95939.81;5022542;28;20103;-70
2022/06/20 00:27:06;;;;;;;24.15;7.93;;;;;;;22.09;99.22;95937.34;5015113;28;20045;-71
2022/06/20 00:29:35;;;;;;;25.83;9.73;;;;;;;22.15;98.15;95939.06;5022736;28;20225;-67
2022/06/20 00:32:02;;;;;;;21.77;8.57;;;;;;;22.11;97.51;95940.44;5040701;28;20045;-68
2022/06/20 00:34:27;;;;;;;18.80;7.28;;;;;;;22.09;97.66;95943.72;5032683;28;20045;-67
2022/06/20 00:36:52;;;;;;;19.70;8.13;;;;;;;21.95;98.64;95936.69;5022585;28;20041;-67
2022/06/20 00:39:20;;;;;;;23.55;8.20;;;;;;;21.84;98.82;95941.94;5017444;28;20052;-67
2022/06/20 00:41:46;;;;;;;21.40;8.80;;;;;;;21.69;100.00;95933.34;5023277;28;20041;-66
2022/06/20 00:44:16;;;;;;;22.65;8.60;;;;;;;21.81;100.00;95933.72;5016920;28;20047;-66
2022/06/20 00:46:51;;;;;;;23.05;8.27;;;;;;;21.98;99.56;95935.00;5022633;28;20065;-67
2022/06/20 00:49:26;;;;;;;21.23;8.10;;;;;;;22.05;98.64;95947.88;4997831;28;20046;-69
2022/06/20 00:52:00;;;;;;;17.42;7.95;;;;;;;21.96;98.42;95949.38;5017415;28;20049;-67
2022/06/20 00:54:53;;;;;;;18.33;7.97;;;;;;;21.64;99.50;95949.91;5031618;28;20076;-68
2022/06/20 00:57:31;;;;;;;16.40;8.02;;;;;;;21.67;100.00;95954.56;5017135;28;20042;-68
2022/06/20 01:00:09;;;;;;;23.08;8.52;;;;;;;21.63;99.95;95956.72;5041753;28;20048;-67
2022/06/20 01:02:43;;;;;;;22.80;8.75;;;;;;;21.61;100.00;95970.31;5028026;28;20117;-67
2022/06/20 01:05:15;;;;;;;20.17;8.23;;;;;;;21.54;99.29;95965.81;5017386;28;20041;-68
2022/06/20 01:07:56;;;;;;;26.95;9.30;;;;;;;21.42;100.00;95964.63;5021602;28;20041;-68
2022/06/20 01:10:23;;;;;;;26.23;9.57;;;;;;;21.37;100.00;95963.25;5015404;28;20682;-69
2022/06/20 01:12:58;;;;;;;20.63;7.68;;;;;;;21.44;100.00;95964.94;5021774;28;20474;-68
2022/06/20 01:15:35;;;;;;;24.30;9.43;;;;;;;21.48;100.00;95975.97;5017401;28;20675;-68
2022/06/20 01:18:03;;;;;;;19.60;8.02;;;;;;;21.39;100.00;95973.91;5021930;28;20072;-67
2022/06/20 01:20:35;;;;;;;22.35;8.63;;;;;;;21.32;100.00;95988.09;5019554;28;20041;-69
2022/06/20 01:23:06;;;;;;;25.70;9.75;;;;;;;21.08;100.00;95993.38;5021830;28;20091;-68
2022/06/20 01:26:01;;;;;;;25.20;9.60;;;;;;;21.04;100.00;95976.03;5020781;28;20033;-68
2022/06/20 01:28:31;;;;;;;22.95;9.05;;;;;;;21.07;100.00;95972.31;5014911;28;20049;-68
2022/06/20 01:30:59;;;;;;;21.40;8.57;;;;;;;21.15;100.00;95970.81;5025363;28;20057;-68
2022/06/20 01:33:26;;;;;;;25.83;9.05;;;;;;;21.25;100.00;95969.66;5019781;28;20837;-68
2022/06/20 01:38:41;;;;;;;21.58;8.93;;;;;;;21.29;100.00;95967.50;5019648;28;20056;-67
2022/06/20 01:43:54;;;;;;;19.77;9.30;;;;;;;21.26;100.00;95965.63;5018545;28;20152;-69
2022/06/20 01:46:25;;;;;;;25.77;9.10;;;;;;;20.99;100.00;95966.25;5016309;28;20128;-71
2022/06/20 01:48:55;;;;;;;21.63;9.05;;;;;;;20.97;100.00;95971.47;5019942;28;20540;-67
2022/06/20 01:51:25;;;;;;;19.45;8.32;;;;;;;20.96;100.00;95978.31;5017070;28;20136;-66
2022/06/20 01:53:51;;;;;;;;;;;;;;;20.87;100.00;95972.63;5020916;28;20041;-67
2022/06/20 01:56:20;;;;;;;21.80;9.00;;;;;;;20.82;100.00;95974.00;5010656;28;20270;-67
2022/06/20 01:59:06;;;;;;;19.25;8.85;;;;;;;20.77;100.00;95991.28;5018092;28;20077;-68
2022/06/20 02:01:34;;;;;;;20.95;8.63;;;;;;;20.75;100.00;95985.41;5014929;28;20042;-67
2022/06/20 02:04:04;;;;;;;30.35;8.18;;;;;;;20.68;100.00;95986.41;5015910;28;20045;-67
2022/06/20 02:06:30;;;;;;;25.38;8.13;;;;;;;20.58;100.00;95977.19;5000036;28;20390;-67
2022/06/20 02:08:57;;;;;;;15.57;7.53;;;;;;;20.55;100.00;95977.31;5021466;28;20046;-68
2022/06/20 02:11:30;;;;;;;17.20;7.55;;;;;;;20.65;100.00;95980.97;5014647;28;20501;-69
2022/06/20 02:14:05;;;;;;;25.92;8.10;;;;;;;20.72;100.00;95983.50;5017388;28;20048;-68
2022/06/20 02:16:35;;;;;;;23.48;8.77;;;;;;;20.38;100.00;95983.06;5017775;28;20048;-68
2022/06/20 02:19:04;;;;;;;24.42;9.35;;;;;;;20.44;100.00;95988.81;5021701;28;20073;-66
2022/06/20 02:21:31;;;;;;;;;;;;;;;20.31;100.00;95994.41;5033928;28;20052;-69
2022/06/20 02:24:03;;;;;;;16.58;8.82;;;;;;;20.31;100.00;95990.84;5031853;28;19917;-68
2022/06/20 02:26:30;;;;;;;20.63;8.55;;;;;;;20.40;100.00;96000.06;5011528;28;20033;-67
2022/06/20 02:29:22;;;;;;;17.67;7.93;;;;;;;20.46;100.00;95999.50;5013183;28;20038;-67
2022/06/20 02:31:51;;;;;;;23.40;9.27;;;;;;;20.43;100.00;95998.38;5013992;28;20413;-69
2022/06/20 02:34:17;;;;;;;28.42;9.05;;;;;;;20.50;100.00;96002.94;5011037;28;20042;-67
2022/06/20 02:36:44;;;;;;;23.15;8.55;;;;;;;20.55;100.00;96007.91;5021659;28;20045;-67
2022/06/20 02:39:10;;;;;;;21.85;9.32;;;;;;;20.59;100.00;96009.34;5014842;28;20156;-67
2022/06/20 02:41:37;;;;;;;16.85;8.52;;;;;;;20.71;100.00;96007.00;5020744;28;20129;-65
2022/06/20 02:44:11;;;;;;;21.73;8.35;;;;;;;20.75;100.00;96016.00;5017876;28;20043;-70
2022/06/20 02:46:39;;;;;;;22.67;8.20;;;;;;;20.53;100.00;96019.50;5021311;28;20064;-67
2022/06/20 02:49:09;;;;;;;20.15;8.65;;;;;;;20.54;100.00;96025.81;5015780;28;20033;-68
2022/06/20 02:51:37;;;;;;;19.92;8.85;;;;;;;20.51;100.00;96016.38;5019472;28;20055;-69
2022/06/20 02:54:05;;;;;;;20.33;8.52;;;;;;;20.56;100.00;96015.81;5018353;28;20041;-70
2022/06/20 02:56:41;;;;;;;19.20;9.18;;;;;;;20.60;100.00;96015.69;5014776;28;20128;-66
2022/06/20 02:59:15;;;;;;;20.17;9.20;;;;;;;20.43;100.00;96015.81;5017762;28;20033;-66
2022/06/20 03:01:52;;;;;;;22.42;8.77;;;;;;;20.24;100.00;96022.44;5024420;28;20069;-66
2022/06/20 03:04:20;;;;;;;23.67;8.30;;;;;;;20.24;100.00;96022.44;5016560;28;20045;-66
2022/06/20 03:06:56;;;;;;;20.85;8.60;;;;;;;20.02;100.00;96012.03;5024343;28;20041;-67
2022/06/20 03:09:27;;;;;;;24.50;9.43;;;;;;;19.65;100.00;96014.31;5012862;28;20065;-68
2022/06/20 03:11:54;;;;;;;23.48;9.80;;;;;;;19.73;100.00;96022.44;5018889;28;20042;-67
2022/06/20 03:14:24;;;;;;;21.40;9.23;;;;;;;19.82;100.00;96022.56;5019975;28;20128;-67
2022/06/20 03:16:50;;;;;;;26.10;9.27;;;;;;;19.78;100.00;96014.34;5025204;28;20107;-67
2022/06/20 03:19:27;;;;;;;21.73;9.77;;;;;;;19.67;100.00;96028.53;5027277;28;20049;-67
2022/06/20 03:21:56;;;;;;;25.45;9.82;;;;;;;19.72;100.00;96035.56;5040348;28;20033;-68
2022/06/20 03:24:24;;;;;;;28.20;9.60;;;;;;;19.79;100.00;96038.16;5034225;28;20045;-68
2022/06/20 03:26:51;;;;;;;23.50;8.90;;;;;;;19.80;100.00;96036.13;5023999;28;20107;-67
2022/06/20 03:29:19;;;;;;;27.88;10.90;;;;;;;19.66;100.00;96040.09;5018178;28;20044;-69
2022/06/20 03:31:44;;;;;;;22.85;8.82;;;;;;;19.57;100.00;96045.53;5027497;28;20663;-68
2022/06/20 03:34:12;;;;;;;23.90;8.90;;;;;;;19.54;100.00;96046.44;5029027;28;20056;-68
2022/06/20 03:36:41;;;;;;;21.75;9.25;;;;;;;19.53;100.00;96051.19;5017448;28;20045;-68
2022/06/20 03:39:07;;;;;;;24.63;8.35;;;;;;;19.64;100.00;96050.88;5019365;28;20048;-69
2022/06/20 03:41:33;;;;;;;19.88;8.27;;;;;;;19.79;100.00;96065.13;5033785;28;20041;-68
2022/06/20 03:44:02;;;;;;;20.30;8.82;;;;;;;20.03;100.00;96065.59;5024040;28;20044;-65
2022/06/20 03:46:34;;;;;;;18.38;9.48;;;;;;;20.14;100.00;96068.81;5018268;28;20041;-68
2022/06/20 03:49:22;;;;;;;21.63;9.10;;;;;;;20.15;100.00;96077.94;5026823;28;20103;-67
2022/06/20 03:52:12;;;;;;;24.45;10.13;;;;;;;19.95;100.00;96090.06;5022544;28;20045;-65
2022/06/20 03:54:45;;;;;;;25.30;9.13;;;;;;;19.89;100.00;96083.50;5003875;28;20050;-69
2022/06/20 03:57:20;;;;;;;19.90;9.93;;;;;;;19.86;100.00;96090.72;5011013;28;20401;-68
2022/06/20 03:59:56;;;;;;;22.48;9.43;;;;;;;20.00;100.00;96095.06;5021600;28;20044;-66
2022/06/20 04:02:31;;;;;;;19.20;8.48;;;;;;;20.20;100.00;96092.06;5018937;28;20523;-67
2022/06/20 04:05:07;;;;;;;21.48;8.88;;;;;;;20.39;100.00;96104.16;5021618;28;20037;-67
2022/06/20 04:07:52;;;;;;;18.77;9.07;;;;;;;20.56;100.00;96106.81;5035666;28;20461;-66
2022/06/20 04:13:25;;;;;;;22.88;9.45;;;;;;;20.91;100.00;96123.59;5028364;28;20615;-68
2022/06/20 04:15:55;;;;;;;16.05;8.38;;;;;;;21.20;100.00;96115.81;5032828;28;20046;-68
2022/06/20 04:18:27;;;;;;;31.38;9.73;;;;;;;21.24;100.00;96124.03;5028142;28;20101;-66
2022/06/20 04:21:05;;;;;;;25.38;9.60;;;;;;;21.15;100.00;96127.53;5020791;28;20041;-68
2022/06/20 04:24:03;;;;;;;18.83;9.13;;;;;;;21.34;100.00;96127.69;5006699;28;20064;-66
2022/06/20 04:26:37;;;;;;;27.45;9.35;;;;;;;21.37;100.00;96126.78;5005307;28;20045;-67
2022/06/20 04:29:12;;;;;;;18.33;9.05;;;;;;;21.67;98.75;96135.69;5013433;28;20817;-71
2022/06/20 04:31:43;;;;;;;19.33;10.13;;;;;;;21.77;98.23;96140.13;5016425;28;20425;-69
2022/06/20 04:34:18;;;;;;;21.15;10.63;;;;;;;22.09;95.48;96152.06;5015794;28;20041;-67
2022/06/20 04:36:54;;;;;;;21.88;9.32;;;;;;;21.86;97.12;96153.31;5022757;28;20048;-67
2022/06/20 04:39:28;;;;;;;23.38;8.70;;;;;;;22.13;96.94;96158.28;5022466;28;20085;-67
2022/06/20 04:42:01;;;;;;;22.88;9.45;;;;;;;22.31;93.72;96152.81;5037359;28;20037;-69
2022/06/20 04:44:43;;;;;;;20.98;8.98;;;;;;;22.14;94.82;96160.59;5018798;28;20140;-70
2022/06/20 04:47:39;;;;;;;23.23;9.23;;;;;;;22.42;91.68;96154.41;5017918;28;20037;-67
2022/06/20 04:50:06;;;;;;;20.95;9.40;;;;;;;22.66;90.20;96158.22;5014994;28;20616;-68
2022/06/20 04:52:32;;;;;;;24.05;9.40;;;;;;;22.80;89.08;96150.53;5022446;28;20041;-66
2022/06/20 04:54:59;;;;;;;20.35;8.90;;;;;;;23.12;87.50;96167.97;5020686;28;20049;-67
2022/06/20 04:57:28;;;;;;;18.88;8.23;;;;;;;23.87;82.98;96178.72;5013554;28;20060;-67
2022/06/20 05:00:02;;;;;;;19.75;9.35;;;;;;;24.18;79.24;96181.34;5018946;28;20181;-68
2022/06/20 05:02:28;;;;;;;24.00;9.27;;;;;;;24.37;77.77;96186.88;5004973;28;20033;-67
2022/06/20 05:04:56;;;;;;;18.38;8.25;;;;;;;24.30;77.66;96181.59;5034374;28;20041;-68
2022/06/20 05:07:33;;;;;;;23.77;9.23;;;;;;;24.05;78.39;96187.09;5015664;28;20143;-68
2022/06/20 05:10:16;;;;;;;26.85;9.93;;;;;;;23.70;80.82;96189.44;5019728;28;20064;-67
2022/06/20 05:12:52;;;;;;;15.68;8.88;;;;;;;23.63;81.86;96200.94;5015946;28;20061;-68
2022/06/20 05:15:39;;;;;;;21.23;8.95;;;;;;;23.81;81.65;96203.75;5015385;28;20075;-67
2022/06/20 05:18:14;;;;;;;17.50;8.25;;;;;;;23.73;81.37;96204.50;5016030;28;20045;-67
2022/06/20 05:20:42;;;;;;;20.70;9.45;;;;;;;23.68;81.34;96197.53;5019690;28;20038;-67
2022/06/20 05:23:13;;;;;;;21.48;8.40;;;;;;;23.64;80.29;96205.25;5009873;28;20148;-69
2022/06/20 05:25:40;;;;;;;19.15;8.60;;;;;;;23.68;79.11;96208.72;5022101;28;20037;-68
2022/06/20 05:28:12;;;;;;;28.10;9.20;;;;;;;23.11;87.37;96211.13;5022233;28;20041;-68
2022/06/20 05:30:40;;;;;;;20.90;9.40;;;;;;;22.28;100.00;96222.69;5022626;28;20041;-67
2022/06/20 05:33:21;;;;;;;23.13;10.02;;;;;;;21.52;100.00;96210.69;5014312;28;20053;-70
2022/06/20 05:35:57;;;;;;;22.60;10.35;;;;;;;21.62;100.00;96217.09;5026347;28;20037;-68
2022/06/20 05:38:32;;;;;;;26.98;11.13;;;;;;;;;;5015779;28;20334;-69
2022/06/20 05:40:59;;;;;;;32.83;10.38;;;;;;;21.74;100.00;96242.13;5019295;28;20064;-68
2022/06/20 05:43:30;;;;;;;22.77;11.00;;;;;;;21.91;100.00;96244.72;5013162;28;20410;-66
2022/06/20 05:46:10;;;;;;;26.88;11.48;;;;;;;22.05;100.00;96243.44;5021001;28;20108;-68
2022/06/20 05:49:00;;;;;;;23.45;10.13;;;;;;;22.20;100.00;96233.31;5022374;28;20103;-68
2022/06/20 05:51:27;;;;;;;20.65;10.25;;;;;;;22.82;97.50;96238.16;5018990;28;20042;-66
2022/06/20 05:54:02;;;;;;;21.20;9.02;;;;;;;23.70;90.10;96241.75;5014464;28;20297;-68
2022/06/20 05:56:38;;;;;;;24.50;9.60;;;;;;;24.38;85.63;96252.78;5016659;28;20842;-68
2022/06/20 05:59:07;;;;;;;25.50;9.43;;;;;;;24.70;83.30;96254.13;5016180;28;20128;-66
2022/06/20 06:01:40;;;;;;;20.40;9.50;;;;;;;25.34;78.59;96255.88;5014068;28;20064;-69
2022/06/20 06:04:08;;;;;;;18.73;8.75;;;;;;;26.31;74.27;96259.38;5026635;28;20095;-68
2022/06/20 06:06:45;;;;;;;25.45;8.32;;;;;;;27.96;64.52;96254.19;5021670;28;20041;-67
2022/06/20 06:09:19;;;;;;;23.48;7.65;;;;;;;28.83;56.62;96261.72;5014297;28;20041;-67
2022/06/20 06:11:54;;;;;;;18.00;7.43;;;;;;;28.40;57.92;96261.56;5019346;28;20128;-66
2022/06/20 06:14:38;;;;;;;18.50;7.55;;;;;;;28.67;56.64;96263.13;5012974;28;20045;-65
2022/06/20 06:17:12;;;;;;;17.77;6.97;;;;;;;29.42;54.69;96268.03;5011892;28;20497;-67
2022/06/20 06:19:37;;;;;;;14.20;5.25;;;;;;;29.88;49.05;96262.16;5020152;28;20486;-67
2022/06/20 06:22:11;;;;;;;16.13;5.10;;;;;;;30.79;45.65;96263.16;5020110;28;20052;-66
2022/06/20 06:24:41;;;;;;;11.40;4.30;;;;;;;31.98;40.81;96263.72;5021417;28;20103;-66
2022/06/20 06:27:12;;;;;;;13.43;4.38;;;;;;;30.46;43.47;96278.75;5015652;28;20049;-66
2022/06/20 06:30:06;;;;;;;11.95;4.50;;;;;;;30.43;45.24;96279.00;5018222;28;20579;-66
2022/06/20 06:32:39;;;;;;;17.70;4.38;;;;;;;31.01;43.33;96282.19;5019008;28;20662;-66
2022/06/20 06:35:11;;;;;;;9.85;3.90;;;;;;;31.51;41.69;96280.63;5018143;28;20041;-67
2022/06/20 06:37:44;;;;;;;19.55;4.30;;;;;;;30.81;41.82;96280.38;5019798;28;20037;-66
2022/06/20 06:40:22;;;;;;;11.80;3.70;;;;;;;31.35;40.04;96287.03;5019114;28;20048;-66
2022/06/20 06:42:50;;;;;;;18.20;4.00;;;;;;;30.79;41.30;96284.97;5016133;28;20091;-66
2022/06/20 06:45:21;;;;;;;14.85;3.92;;;;;;;29.91;43.18;96280.91;5019618;28;20518;-65
2022/06/20 06:47:56;;;;;;;19.17;4.05;;;;;;;29.19;44.86;96286.88;5023984;28;20044;-66
2022/06/20 06:50:39;;;;;;;10.90;3.92;;;;;;;28.44;44.89;96283.88;5011511;28;20042;-65
2022/06/20 06:53:15;;;;;;;15.38;4.30;;;;;;;28.15;44.74;96271.56;5031695;28;20068;-65
2022/06/20 06:55:46;;;;;;;13.38;3.95;;;;;;;27.87;45.66;96288.84;5005306;28;20042;-66
2022/06/20 06:58:37;;;;;;;7.63;3.78;;;;;;;27.63;46.91;96287.00;5004650;28;20033;-66
2022/06/20 07:01:18;;;;;;;7.70;3.50;;;;;;;27.25;47.20;96285.94;5019986;28;20397;-65
2022/06/20 07:03:48;;;;;;;12.18;4.15;;;;;;;27.23;48.21;96288.47;5024754;28;20072;-66
2022/06/20 07:06:30;;;;;;;9.15;3.42;;;;;;;27.65;47.51;96301.34;5017501;28;20111;-65
2022/06/20 07:09:10;;;;;;;12.98;3.75;;;;;;;27.72;47.77;96288.16;5024411;28;20041;-65
2022/06/20 07:11:43;;;;;;;13.50;3.25;;;;;;;27.76;46.28;96292.28;5003554;28;20048;-66
2022/06/20 07:14:22;;;;;;;12.02;3.63;;;;;;;28.36;46.15;96300.44;5008930;28;20046;-65
2022/06/20 07:16:59;;;;;;;13.32;3.83;;;;;;;28.90;43.66;96299.94;5023245;28;20048;-65
2022/06/20 07:19:26;;;;;;;7.28;3.42;;;;;;;28.36;43.54;96301.22;5019732;28;20049;-66
2022/06/20 07:21:52;;;;;;;8.52;3.47;;;;;;;28.95;41.69;96305.63;5032439;28;20141;-66
2022/06/20 07:24:21;;;;;;;8.65;2.92;;;;;;;29.24;41.00;96306.66;5028612;28;20101;-66
2022/06/20 07:26:53;;;;;;;16.92;2.97;;;;;;;29.67;39.93;96314.34;5027562;28;20060;-66
2022/06/20 07:29:25;;;;;;;8.10;2.55;;;;;;;30.56;37.14;96321.69;5017970;28;20076;-66
2022/06/20 07:31:56;;;;;;;8.70;2.58;;;;;;;29.97;37.63;96314.81;5021808;28;20064;-66
2022/06/20 07:34:22;;;;;;;8.25;2.70;;;;;;;29.60;37.71;96315.59;5023508;28;20073;-65
2022/06/20 07:36:51;;;;;;;8.37;2.77;;;;;;;30.68;36.66;96319.66;5037182;28;20091;-66
2022/06/20 07:39:44;;;;;;;12.55;2.58;;;;;;;30.70;34.68;96317.06;5022294;28;20304;-66
2022/06/20 07:42:21;;;;;;;11.68;2.65;;;;;;;30.69;35.57;96315.56;5010609;28;20520;-68
2022/06/20 07:44:51;;;;;;;9.60;2.35;;;;;;;30.78;34.94;96312.47;5016838;28;20052;-67
2022/06/20 07:47:24;;;;;;;10.43;2.55;;;;;;;31.08;34.70;96319.72;5017319;28;20053;-67
2022/06/20 07:50:04;;;;;;;10.63;2.53;;;;;;;31.76;34.31;96321.19;5023721;28;20041;-66
2022/06/20 07:52:50;;;;;;;7.65;2.47;;;;;;;31.93;33.10;96320.38;5031493;28;20041;-66
2022/06/20 07:55:23;;;;;;;7.03;2.65;;;;;;;31.64;34.42;96316.84;5032539;28;20042;-65
2022/06/20 07:57:58;;;;;;;12.32;2.63;;;;;;;30.99;34.46;96318.69;5024195;28;20060;-65
2022/06/20 08:00:28;;;;;;;10.20;2.83;;;;;;;30.47;34.74;96322.69;5022464;28;20246;-66
2022/06/20 08:02:59;;;;;;;8.57;2.58;;;;;;;30.75;34.47;96316.31;5013931;28;20050;-66
2022/06/20 08:05:33;;;;;;;12.57;2.63;;;;;;;30.47;36.21;96319.88;5018580;28;20403;-65
2022/06/20 08:08:09;;;;;;;10.18;2.88;;;;;;;29.68;36.83;96319.50;5035055;28;20114;-67
2022/06/20 08:10:43;;;;;;;8.65;2.22;;;;;;;29.34;37.86;96321.34;5026577;28;20057;-67
2022/06/20 08:13:24;;;;;;;7.82;2.70;;;;;;;29.28;38.53;96317.69;5002881;28;20128;-68
2022/06/20 08:16:04;;;;;;;9.80;2.83;;;;;;;29.63;37.51;96317.41;5006276;28;20050;-70
2022/06/20 08:18:30;;;;;;;7.05;2.83;;;;;;;29.48;37.96;96320.41;5016731;28;20049;-66
2022/06/20 08:21:03;;;;;;;8.30;2.97;;;;;;;29.14;38.58;96330.66;5043613;28;20021;-66
2022/06/20 08:23:41;;;;;;;16.23;2.85;;;;;;;29.17;39.07;96324.81;5033226;28;20102;-66
2022/06/20 08:26:16;;;;;;;9.93;3.30;;;;;;;29.00;40.54;96326.69;5013719;28;20038;-66
2022/06/20 08:28:58;;;;;;;7.75;2.67;;;;;;;28.56;40.54;96328.59;5020220;28;20037;-68
2022/06/20 08:31:35;;;;;;;10.80;3.03;;;;;;;28.29;40.58;96329.81;5018252;28;20561;-68
2022/06/20 08:34:22;;;;;;;8.40;3.00;;;;;;;28.50;41.68;96330.53;5022631;28;20111;-66
2022/06/20 08:37:05;;;;;;;6.93;2.78;;;;;;;28.83;40.94;96325.75;5021067;28;20037;-67
2022/06/20 08:39:40;;;;;;;6.03;2.50;;;;;;;28.97;39.78;96331.28;5022202;28;20107;-67
2022/06/20 08:42:25;;;;;;;12.50;2.53;;;;;;;29.24;39.22;96334.06;5017519;28;20049;-67
2022/06/20 08:45:01;;;;;;;9.35;2.72;;;;;;;28.95;40.17;96330.22;5022844;28;20046;-68
2022/06/20 08:48:05;;;;;;;13.90;2.97;;;;;;;28.48;40.56;96324.63;5017626;28;20089;-67
2022/06/20 08:51:04;;;;;;;5.88;2.42;;;;;;;28.10;40.66;96326.50;5013930;28;20148;-67
2022/06/20 08:53:48;;;;;;;7.40;2.88;;;;;;;28.14;39.80;96329.88;5020676;28;20112;-66
2022/06/20 08:56:51;;;;;;;5.43;2.30;;;;;;;28.00;40.35;96325.09;5013973;28;20486;-67
2022/06/20 08:59:26;;;;;;;8.13;2.85;;;;;;;27.87;39.81;96338.72;5016703;28;20057;-68
2022/06/20 09:02:16;;;;;;;11.02;2.92;;;;;;;28.39;39.78;96342.47;5018727;28;20864;-67
2022/06/20 09:05:14;;;;;;;6.93;2.55;;;;;;;28.88;38.93;96336.31;5005908;28;20139;-67
2022/06/20 09:08:12;;;;;;;10.25;2.70;;;;;;;28.82;38.83;96338.31;5018279;28;20482;-68
2022/06/20 09:11:14;;;;;;;11.93;2.75;;;;;;;28.72;39.19;96332.84;5000628;28;20063;-67
2022/06/20 09:14:16;;;;;;;6.72;2.40;;;;;;;29.12;38.13;96338.84;5021992;28;20064;-68
2022/06/20 09:17:03;;;;;;;10.90;3.38;;;;;;;29.13;37.99;96346.78;5018868;28;20498;-65
2022/06/20 09:19:31;;;;;;;12.73;2.58;;;;;;;30.00;36.50;96336.38;5006847;28;20045;-67
2022/06/20 09:22:11;;;;;;;5.90;2.25;;;;;;;30.18;36.09;96346.47;5022922;28;20542;-68
2022/06/20 09:25:13;;;;;;;11.30;2.70;;;;;;;28.47;36.96;96351.25;5019986;28;20045;-66
2022/06/20 09:28:03;;;;;;;7.15;2.28;;;;;;;28.65;37.59;96344.56;4967402;28;20062;-66
2022/06/20 09:30:42;;;;;;;5.90;2.60;;;;;;;28.34;38.20;96348.81;5000594;28;20425;-67
2022/06/20 09:33:43;;;;;;;12.23;2.33;;;;;;;28.68;37.19;96340.75;5016930;28;20045;-67
2022/06/20 09:36:20;;;;;;;11.35;3.00;;;;;;;29.06;36.77;96349.28;5015643;28;20050;-66
2022/06/20 09:39:07;;;;;;;10.85;2.60;;;;;;;28.96;37.16;96343.06;5033331;28;20088;-67
2022/06/20 09:41:43;;;;;;;11.27;2.22;;;;;;;28.75;36.71;96350.81;5014314;28;20080;-66
2022/06/20 09:44:42;;;;;;;3.83;2.15;;;;;;;28.20;35.99;96344.81;5012882;28;20046;-65
2022/06/20 09:47:10;;;;;;;;;;;;;;;27.96;36.95;96347.06;5003245;28;20037;-66
2022/06/20 09:49:55;;;;;;;7.28;2.20;;;;;;;28.13;37.35;96344.47;5019233;28;19918;-66
2022/06/20 09:52:44;;;;;;;15.38;2.65;;;;;;;27.93;37.00;96348.03;5017133;28;20037;-66
2022/06/20 09:55:33;;;;;;;5.95;2.60;;;;;;;27.97;36.89;96351.44;5017404;28;20041;-69
2022/06/20 09:58:19;;;;;;;9.75;2.72;;;;;;;27.62;37.24;96343.75;5020702;28;20150;-65
2022/06/20 10:00:49;;;;;;;7.65;3.17;;;;;;;27.87;38.44;96350.75;5018974;28;20048;-67
2022/06/20 10:03:18;;;;;;;4.95;2.05;;;;;;;27.78;37.92;96329.16;5014223;28;20092;-67
2022/06/20 10:05:56;;;;;;;;;;;;;;;27.78;38.29;96329.16;5021630;28;20129;-68
2022/06/20 10:08:45;;;;;;;10.93;2.45;;;;;;;27.99;37.68;96340.47;5009691;28;19924;-67
2022/06/20 10:11:11;;;;;;;7.95;2.65;;;;;;;27.97;37.56;96343.00;4999449;28;20534;-67
2022/06/20 10:13:46;;;;;;;8.10;2.60;;;;;;;28.16;37.43;96341.44;5020787;28;20128;-66
2022/06/20 10:16:42;;;;;;;8.15;2.45;;;;;;;28.34;38.04;96329.13;5017886;28;20284;-68
2022/06/20 10:19:14;;;;;;;9.38;2.60;;;;;;;28.39;38.08;96328.38;5021622;28;20092;-68
2022/06/20 10:21:47;;;;;;;10.27;2.67;;;;;;;28.22;39.08;96316.16;5022335;28;20037;-67
2022/06/20 10:24:47;;;;;;;7.60;2.50;;;;;;;28.74;37.78;96324.69;5015678;28;20628;-67
2022/06/20 10:27:27;;;;;;;;;;;;;;;28.78;38.17;96316.00;5016231;28;20049;-67
2022/06/20 10:30:08;;;;;;;12.50;2.70;;;;;;;28.85;37.26;96311.97;5021555;28;19926;-67
2022/06/20 10:32:40;;;;;;;8.65;2.72;;;;;;;28.84;37.37;96308.34;5019115;28;20072;-66
2022/06/20 10:35:17;;;;;;;8.52;2.38;;;;;;;29.50;36.81;96305.81;5014869;28;20605;-66
2022/06/20 10:38:08;;;;;;;6.82;2.30;;;;;;;29.76;35.54;96304.94;5019752;28;20084;-66
2022/06/20 10:40:45;;;;;;;7.38;2.22;;;;;;;29.82;34.84;96303.69;5013048;28;20045;-66
2022/06/20 10:43:32;;;;;;;11.82;2.53;;;;;;;29.86;35.21;96309.88;5015121;28;20037;-66
2022/06/20 10:46:22;;;;;;;8.88;2.38;;;;;;;29.72;35.18;96296.69;5021626;28;20033;-66
2022/06/20 10:49:12;;;;;;;7.85;2.50;;;;;;;29.82;35.28;96297.25;5013170;28;20091;-67
2022/06/20 10:51:43;;;;;;;8.02;2.58;;;;;;;30.13;35.28;96313.31;5017794;28;20490;-68
2022/06/20 10:54:23;;;;;;;6.53;2.28;;;;;;;30.43;35.42;96298.78;5014565;28;20037;-66
2022/06/20 10:56:55;;;;;;;9.00;3.00;;;;;;;30.08;34.00;96295.06;5021962;28;20122;-66
2022/06/20 10:59:33;;;;;;;11.40;2.55;;;;;;;29.98;34.54;96293.78;5000030;28;20518;-68
2022/06/20 11:02:30;;;;;;;8.25;2.75;;;;;;;30.00;35.27;96302.50;5029060;28;20045;-67
2022/06/20 11:05:08;;;;;;;7.13;2.28;;;;;;;30.46;34.50;96289.31;5020981;28;20494;-67
2022/06/20 11:07:41;;;;;;;5.95;2.20;;;;;;;30.29;34.11;96292.84;5010553;28;20130;-67
2022/06/20 11:10:15;;;;;;;5.63;2.42;;;;;;;30.40;33.77;96282.88;5016798;28;20111;-66
2022/06/20 11:12:48;;;;;;;8.00;2.28;;;;;;;30.27;34.04;96284.09;5021875;28;20517;-67
2022/06/20 11:15:28;;;;;;;6.38;2.45;;;;;;;30.70;32.79;96280.34;5003803;28;20045;-67
2022/06/20 11:18:08;;;;;;;11.40;2.30;;;;;;;30.61;34.10;96277.75;5021107;28;20041;-67
2022/06/20 11:20:40;;;;;;;8.35;2.70;;;;;;;30.36;33.92;96285.16;5005642;28;20132;-67
2022/06/20 11:23:21;;;;;;;8.00;2.22;;;;;;;30.56;34.46;96284.16;5026510;28;20034;-67
2022/06/20 11:26:14;;;;;;;5.65;2.10;;;;;;;30.48;33.43;96281.84;5031252;28;20159;-66
2022/06/20 11:29:12;;;;;;;10.43;2.47;;;;;;;30.30;32.83;96276.66;5023431;28;20041;-68
2022/06/20 11:31:47;;;;;;;6.60;2.10;;;;;;;30.50;34.03;96278.50;5040147;28;20042;-67
2022/06/20 11:34:46;;;;;;;7.80;2.63;;;;;;;31.08;34.41;96272.41;5029756;28;20052;-68
2022/06/20 11:37:23;;;;;;;14.05;2.20;;;;;;;30.79;34.08;96271.63;5012813;28;20041;-67
2022/06/20 11:40:08;;;;;;;8.85;2.30;;;;;;;30.88;33.71;96264.94;5028872;28;20045;-67
2022/06/20 11:42:45;;;;;;;9.52;2.40;;;;;;;30.90;34.86;96275.72;5022609;28;20513;-68
2022/06/20 11:45:29;;;;;;;11.20;2.65;;;;;;;30.73;34.15;96261.59;5017109;28;20041;-66
2022/06/20 11:48:02;;;;;;;14.60;6.15;;;;;;;30.60;34.15;96248.75;5023083;28;20103;-67
2022/06/20 11:50:35;;;;;;;9.43;2.53;;;;;;;30.62;32.66;96262.34;5020009;28;20249;-67
2022/06/20 11:53:24;;;;;;;11.25;2.30;;;;;;;30.81;32.77;96246.44;5023962;28;20048;-67
2022/06/20 11:55:49;;;;;;;7.50;2.20;;;;;;;31.05;33.29;96254.41;5022408;28;20563;-68
2022/06/20 11:58:19;;;;;;;8.70;2.28;;;;;;;31.03;32.27;96251.34;5027432;28;20097;-67
2022/06/20 12:00:49;;;;;;;12.48;2.95;;;;;;;30.78;32.00;96249.53;5042276;28;20041;-67
2022/06/20 12:03:39;;;;;;;7.15;2.60;;;;;;;30.90;33.58;96241.78;5019043;28;20137;-66
2022/06/20 12:06:04;;;;;;;8.18;2.25;;;;;;;30.76;33.39;96247.22;5017838;28;20076;-66
2022/06/20 12:08:32;;;;;;;9.03;2.37;;;;;;;30.64;34.42;96240.75;5023223;28;20068;-67
2022/06/20 12:11:06;;;;;;;8.20;2.58;;;;;;;30.68;34.01;96237.69;5024409;28;20689;-67
2022/06/20 12:13:43;;;;;;;7.88;2.83;;;;;;;31.01;34.56;96245.44;5003033;28;20071;-67
2022/06/20 12:16:21;;;;;;;8.35;2.50;;;;;;;30.80;35.33;96235.63;5022551;28;20076;-63